Map

Track Data

SID SEASON NUMBER BASIN SUBBASIN NAME ISO_TIME NATURE LAT LON WMO_WIND WMO_PRES WMO_AGENCY TRACK_TYPE DIST2LAND LANDFALL IFLAG USA_AGENCY USA_ATCF_ID USA_LAT USA_LON USA_RECORD USA_STATUS USA_WIND USA_PRES USA_SSHS USA_R34_NE USA_R34_SE USA_R34_SW USA_R34_NW USA_R50_NE USA_R50_SE USA_R50_SW USA_R50_NW USA_R64_NE USA_R64_SE USA_R64_SW USA_R64_NW USA_POCI USA_ROCI USA_RMW USA_EYE TOKYO_LAT TOKYO_LON TOKYO_GRADE TOKYO_WIND TOKYO_PRES TOKYO_R50_DIR TOKYO_R50_LONG TOKYO_R50_SHORT TOKYO_R30_DIR TOKYO_R30_LONG TOKYO_R30_SHORT TOKYO_LAND CMA_LAT CMA_LON CMA_CAT CMA_WIND CMA_PRES HKO_LAT HKO_LON HKO_CAT HKO_WIND HKO_PRES NEWDELHI_LAT NEWDELHI_LON NEWDELHI_GRADE NEWDELHI_WIND NEWDELHI_PRES NEWDELHI_CI NEWDELHI_DP NEWDELHI_POCI REUNION_LAT REUNION_LON REUNION_TYPE REUNION_WIND REUNION_PRES REUNION_TNUM REUNION_CI REUNION_RMW REUNION_R34_NE REUNION_R34_SE REUNION_R34_SW REUNION_R34_NW REUNION_R50_NE REUNION_R50_SE REUNION_R50_SW REUNION_R50_NW REUNION_R64_NE REUNION_R64_SE REUNION_R64_SW REUNION_R64_NW BOM_LAT BOM_LON BOM_TYPE BOM_WIND BOM_PRES BOM_TNUM BOM_CI BOM_RMW BOM_R34_NE BOM_R34_SE BOM_R34_SW BOM_R34_NW BOM_R50_NE BOM_R50_SE BOM_R50_SW BOM_R50_NW BOM_R64_NE BOM_R64_SE BOM_R64_SW BOM_R64_NW BOM_ROCI BOM_POCI BOM_EYE BOM_POS_METHOD BOM_PRES_METHOD NADI_LAT NADI_LON NADI_CAT NADI_WIND NADI_PRES WELLINGTON_LAT WELLINGTON_LON WELLINGTON_WIND WELLINGTON_PRES DS824_LAT DS824_LON DS824_STAGE DS824_WIND DS824_PRES TD9636_LAT TD9636_LON TD9636_STAGE TD9636_WIND TD9636_PRES TD9635_LAT TD9635_LON TD9635_WIND TD9635_PRES TD9635_ROCI NEUMANN_LAT NEUMANN_LON NEUMANN_CLASS NEUMANN_WIND NEUMANN_PRES MLC_LAT MLC_LON MLC_CLASS MLC_WIND MLC_PRES USA_GUST BOM_GUST BOM_GUST_PER REUNION_GUST REUNION_GUST_PER USA_SEAHGT USA_SEARAD_NE USA_SEARAD_SE USA_SEARAD_SW USA_SEARAD_NW STORM_SPEED STORM_DIR
1940063S16154 1940 14 SP EA NOT_NAMED 1940-03-02 23:00:00 NR -15.5500 154.300 1006 bom main 673 599 ______O___O___ -1 -13.0000 151.900 1006 -18.1000 156.700 7 51 312
1940063S16154 1940 14 SP EA NOT_NAMED 1940-03-03 00:00:00 TS -14.9842 153.643 main 584 522 ______P__OP___ -1 -13.0472 151.807 -13.0000 151.800 TC 15 1006 -17.9132 156.400 7 22 303
1940063S16154 1940 14 SP EA NOT_NAMED 1940-03-03 03:00:00 TS -14.7379 153.020 main 522 488 ______P__PP___ -1 -13.1878 151.528 -13.1412 151.540 TC -17.3524 155.500 7 12 290
1940063S16154 1940 14 SP EA NOT_NAMED 1940-03-03 06:00:00 TS -14.5749 152.474 main 488 445 ______P__PP___ -1 -13.3246 151.255 -13.2794 151.283 TC -16.7968 154.587 7 12 288
1940063S16154 1940 14 SP EA NOT_NAMED 1940-03-03 09:00:00 TS -14.3733 151.890 main 445 423 ______P__PP___ -1 -13.4548 150.991 -13.4121 151.032 TC -16.2529 153.648 7 11 287
1940063S16154 1940 14 SP EA NOT_NAMED 1940-03-03 11:00:00 TS -14.3110 151.564 main 423 417 ______P__PO___ -1 -13.5367 150.822 -13.4961 150.870 TC -15.9000 153.000 7 10 281
1940063S16154 1940 14 SP EA NOT_NAMED 1940-03-03 12:00:00 TS -14.2799 151.400 main 417 395 ______P__PP___ -1 -13.5759 150.740 -13.5366 150.792 TC -15.7272 152.669 7 10 281
1940063S16154 1940 14 SP EA NOT_NAMED 1940-03-03 15:00:00 TS -14.1898 150.915 main 395 380 ______P__PP___ -1 -13.6854 150.506 -13.6502 150.565 TC -15.2339 151.675 7 9 281
1940063S16154 1940 14 SP EA NOT_NAMED 1940-03-03 18:00:00 TS -14.1107 150.466 main 380 380 ______P__PP___ -1 -13.7804 150.294 -13.7504 150.355 TC -14.8013 150.750 7 8 280
1940063S16154 1940 14 SP EA NOT_NAMED 1940-03-03 21:00:00 TS -14.0512 150.085 main 380 369 ______P__PP___ -1 -13.8586 150.108 -13.8345 150.165 TC -14.4605 149.982 7 7 278
1940063S16154 1940 14 SP EA NOT_NAMED 1940-03-03 23:00:00 TS -14.0268 149.884 1006 bom main 370 370 ______O__PO___ -1 -13.9000 150.000 1006 -13.8804 150.052 TC -14.3000 149.600 7 5 276
1940063S16154 1940 14 SP EA NOT_NAMED 1940-03-04 00:00:00 TS -14.0213 149.808 main 372 372 ______P__OP___ -1 -13.9173 149.951 -13.9000 150.000 TC 15 1006 -14.2468 149.473 7 3 270
1940063S16154 1940 14 SP EA NOT_NAMED 1940-03-04 03:00:00 TS -14.0262 149.649 main 375 375 ______P__PP___ -1 -13.9564 149.824 -13.9453 149.860 TC -14.1769 149.263 7 2 263
1940063S16154 1940 14 SP EA NOT_NAMED 1940-03-04 06:00:00 TS -14.0511 149.563 main 386 386 ______P__PP___ -1 -13.9796 149.718 -13.9734 149.741 TC -14.2003 149.230 7 1 248
1940063S16154 1940 14 SP EA NOT_NAMED 1940-03-04 09:00:00 TS -14.0807 149.511 main 388 388 ______P__PP___ -1 -13.9908 149.624 -13.9882 149.633 TC -14.2630 149.275 7 1 243
1940063S16154 1940 14 SP EA NOT_NAMED 1940-03-04 11:00:00 TS -14.0954 149.476 main 388 388 ______P__PO___ -1 -13.9936 149.564 -13.9926 149.564 TC -14.3000 149.300 7 1 256
1940063S16154 1940 14 SP EA NOT_NAMED 1940-03-04 12:00:00 TS -14.0938 149.447 main 390 390 ______P__PP___ -1 -13.9940 149.534 -13.9936 149.529 TC -14.2938 149.277 7 2 275
1940063S16154 1940 14 SP EA NOT_NAMED 1940-03-04 15:00:00 TS -14.0852 149.356 main 390 390 ______P__PP___ -1 -13.9931 149.440 -13.9936 149.422 TC -14.2690 149.207 7 2 276
1940063S16154 1940 14 SP EA NOT_NAMED 1940-03-04 18:00:00 TS -14.0747 149.252 main 393 393 ______P__PP___ -1 -13.9919 149.332 -13.9921 149.303 TC -14.2401 149.121 7 2 275
1940063S16154 1940 14 SP EA NOT_NAMED 1940-03-04 21:00:00 TS -14.0669 149.124 main 399 399 ______P__PP___ -1 -13.9944 149.203 -13.9929 149.165 TC -14.2135 149.004 7 3 272
1940063S16154 1940 14 SP EA NOT_NAMED 1940-03-04 23:00:00 TS -14.0656 149.020 1000 bom main 402 402 ______O__PO___ -1 -14.0000 149.100 1000 -13.9967 149.059 TC -14.2000 148.900 7 3 270
1940063S16154 1940 14 SP EA NOT_NAMED 1940-03-05 00:00:00 TS -14.0659 148.962 main 402 389 ______P__OP___ -1 -14.0023 149.050 -14.0000 149.000 TC 30 1000 -14.1955 148.836 7 4 270
1940063S16154 1940 14 SP EA NOT_NAMED 1940-03-05 03:00:00 TS -14.0676 148.771 main 389 369 ______P__PP___ -1 -14.0092 148.890 -14.0066 148.814 TC -14.1868 148.609 7 4 269
1940063S16154 1940 14 SP EA NOT_NAMED 1940-03-05 06:00:00 TS -14.0731 148.555 main 369 338 ______P__PP___ -1 -14.0189 148.709 -14.0149 148.608 TC -14.1856 148.348 7 4 268
1940063S16154 1940 14 SP EA NOT_NAMED 1940-03-05 09:00:00 TS -14.0851 148.319 main 338 328 ______P__PP___ -1 -14.0351 148.501 -14.0283 148.378 TC -14.1917 148.077 7 5 266
1940063S16154 1940 14 SP EA NOT_NAMED 1940-03-05 11:00:00 TS -14.0977 148.152 main 328 317 ______P__PO___ -1 -14.0512 148.345 -14.0420 148.210 TC -14.2000 147.900 7 5 265
1940063S16154 1940 14 SP EA NOT_NAMED 1940-03-05 12:00:00 TS -14.1043 148.073 main 317 287 ______P__PP___ -1 -14.0613 148.261 -14.0506 148.122 TC -14.2011 147.835 7 5 264
1940063S16154 1940 14 SP EA NOT_NAMED 1940-03-05 15:00:00 TS -14.1316 147.824 main 287 263 ______P__PP___ -1 -14.1011 147.981 -14.0853 147.839 TC -14.2085 147.652 7 5 262
1940063S16154 1940 14 SP EA NOT_NAMED 1940-03-05 18:00:00 TS -14.1737 147.546 main 253 223 ______P__PP___ -1 -14.1579 147.657 -14.1361 147.526 TC -14.2270 147.456 7 6 260
1940063S16154 1940 14 SP EA NOT_NAMED 1940-03-05 21:00:00 TS -14.2350 147.224 main 223 199 ______P__PP___ -1 -14.2353 147.282 -14.2065 147.180 TC -14.2631 147.210 7 7 258
1940063S16154 1940 14 SP EA NOT_NAMED 1940-03-05 23:00:00 TS -14.2887 146.977 1002 bom main 199 189 ______O__PO___ -1 -14.3000 147.000 1002 4 -14.2660 146.931 TC -14.3000 147.000 7 8 258
1940063S16154 1940 14 SP EA NOT_NAMED 1940-03-06 00:00:00 TS -14.3164 146.841 main 179 136 ______P__OP___ -1 -14.3334 146.848 -14.3000 146.800 TC 25 1002 -14.3159 146.875 7 9 257
1940063S16154 1940 14 SP EA NOT_NAMED 1940-03-06 03:00:00 TS -14.4226 146.384 main 136 85 ______P__PP___ -1 -14.4481 146.353 -14.4426 146.356 TC -14.3771 146.441 7 10 256
1940063S16154 1940 14 SP EA NOT_NAMED 1940-03-06 06:00:00 TS -14.5535 145.877 main 78 31 ______P__PP___ -1 -14.5844 145.823 -14.6104 145.870 TC -14.4657 145.937 7 11 254
1940063S16154 1940 14 SP EA NOT_NAMED 1940-03-06 09:00:00 TS -14.7096 145.340 main 24 11 ______P__PP___ -1 -14.7425 145.280 -14.7954 145.355 TC -14.5911 145.385 7 11 253
1940063S16154 1940 14 SP EA NOT_NAMED 1940-03-06 10:00:00 TS -14.7674 145.157 bom main 11 0 ______O__PP___ -1 -14.8000 145.100 -14.8594 145.179 TC -14.6428 145.193 7 11 251
1940063S16154 1940 14 SP EA NOT_NAMED 1940-03-06 11:00:00 TS -14.8294 144.975 main 0 0 ______P__PO___ -1 -14.8639 144.923 -14.9242 145.002 TC -14.7000 145.000 7 11 250
1940063S16154 1940 14 SP EA NOT_NAMED 1940-03-06 12:00:00 TS -14.8947 144.791 main 0 0 ______P__PP___ -1 -14.9316 144.745 -14.9894 144.824 TC -14.7630 144.805 7 11 249
1940063S16154 1940 14 SP EA NOT_NAMED 1940-03-06 15:00:00 TS -15.1054 144.239 main 0 0 ______P__PP___ -1 -15.1492 144.214 -15.1846 144.289 TC -14.9822 144.214 7 11 247
1940063S16154 1940 14 SP EA NOT_NAMED 1940-03-06 18:00:00 TS -15.3356 143.699 main 0 0 ______P__PP___ -1 -15.3724 143.697 -15.3732 143.765 TC -15.2363 143.613 7 11 246
1940063S16154 1940 14 SP EA NOT_NAMED 1940-03-06 21:00:00 TS -15.5534 143.189 main 0 0 ______P__PP___ -1 -15.5802 143.205 -15.5475 143.264 TC -15.5116 143.007 7 10 246
1940063S16154 1940 14 SP EA NOT_NAMED 1940-03-06 23:00:00 TS -15.6787 142.889 1006 bom main 0 0 ______O__PO___ -1 -15.7000 142.900 1006 -15.6521 142.950 TC -15.7000 142.600 7 9 247
1940063S16154 1940 14 SP EA NOT_NAMED 1940-03-07 00:00:00 TS -15.7226 142.779 main 0 0 ______P__O____ -1 -15.7452 142.757 -15.7000 142.800 TC 15 1006 7 8 252
1940063S16154 1940 14 SP EA NOT_NAMED 1940-03-07 03:00:00 TS -15.8411 142.369 main 0 0 ______P__P____ -1 -15.8566 142.358 -15.8257 142.381 TC 7 8 254
1940063S16154 1940 14 SP EA NOT_NAMED 1940-03-07 06:00:00 TS -15.9373 141.995 main 0 0 ______P__P____ -1 -15.9433 141.991 -15.9294 142.000 TC 7 7 256
1940063S16154 1940 14 SP EA NOT_NAMED 1940-03-07 09:00:00 TS -16.0193 141.643 main 0 0 ______P__P____ -1 -16.0196 141.643 -16.0185 141.644 TC 7 7 256
1940063S16154 1940 14 SP EA NOT_NAMED 1940-03-07 12:00:00 TS -16.1000 141.300 bom main 10 10 ______O__O____ -1 -16.1000 141.300 -16.1000 141.300 TC 7 255
1940063S16154 1940 14 SP EA NOT_NAMED 1940-03-07 15:00:00 NR -16.1954 140.952 main 39 39 ______P_______ -1 -16.1954 140.952 TC 7 253
1940063S16154 1940 14 SP EA NOT_NAMED 1940-03-07 18:00:00 NR -16.3040 140.598 main 75 75 ______P_______ -1 -16.3040 140.598 TC 7 252
1940063S16154 1940 14 SP EA NOT_NAMED 1940-03-07 21:00:00 NR -16.4205 140.240 main 108 101 ______P_______ -1 -16.4205 140.240 TC 7 251
1940063S16154 1940 14 SP EA NOT_NAMED 1940-03-07 23:00:00 NR -16.5000 140.000 1006 bom main 101 ______O_______ -1 -16.5000 140.000 1006 TC 7 251

Digital Typhoon Data and Search

About IBTrACS Database

This database is a web-friendly format of International Best Track Archive for Climate Stewardship (IBTrACS), a global best track data archive curated by NOAA dating back to 1842.

Updated: 2021-11-26